Time;durP1;ratioP1;P1;durP2;ratioP2;P2;SDS_P1;SDS_P2;PMS_P1;PMS_P2;Temp;Humidity;BMP_temperature;BMP_pressure;BME280_temperature;BME280_humidity;BME280_pressure;Samples;Min_cycle;Max_cycle;Signal;HPM_P1;HPM_P2
2022/09/10 00:01:13;;;;;;;;;;;17.10;77.00;;;;;;5124081;27;19972;-71
2022/09/10 00:03:41;;;;;;;;;;;17.10;77.10;;;;;;5129821;27;20008;-71
2022/09/10 00:06:08;;;;;;;;;;;17.00;77.20;;;;;;5128667;27;19919;-71
2022/09/10 00:08:35;;;;;;;;;;;17.00;77.20;;;;;;5128485;27;20055;-71
2022/09/10 00:11:04;;;;;;;;;;;17.00;77.30;;;;;;5129849;27;19931;-71
2022/09/10 00:13:32;;;;;;;;;;;17.00;77.40;;;;;;5126802;27;19919;-71
2022/09/10 00:16:01;;;;;;;;;;;17.00;77.50;;;;;;5131951;27;19923;-70
2022/09/10 00:18:29;;;;;;;;;;;17.00;77.50;;;;;;5129169;27;19923;-70
2022/09/10 00:20:57;;;;;;;;;;;17.00;77.60;;;;;;5126938;27;20425;-71
2022/09/10 00:23:25;;;;;;;;;;;17.00;77.60;;;;;;5128882;27;19926;-71
2022/09/10 00:25:52;;;;;;;;;;;17.00;77.70;;;;;;5129142;27;20372;-71
2022/09/10 00:28:19;;;;;;;;;;;17.00;77.80;;;;;;5131960;27;19930;-71
2022/09/10 00:30:48;;;;;;;;;;;17.00;77.90;;;;;;5125941;27;19924;-71
2022/09/10 00:33:15;;;;;;;;;;;17.00;77.90;;;;;;5129395;27;19936;-71
2022/09/10 00:35:45;;;;;;;;;;;17.00;77.90;;;;;;5131126;27;20288;-71
2022/09/10 00:38:12;;;;;;;;;;;17.00;77.90;;;;;;5131525;27;19919;-71
2022/09/10 00:40:40;;;;;;;;;;;17.00;78.00;;;;;;5124629;27;19927;-71
2022/09/10 00:43:10;;;;;;;;;;;17.10;77.90;;;;;;5125015;27;19934;-72
2022/09/10 00:45:38;;;;;;;;;;;17.00;77.90;;;;;;5129248;27;19919;-71
2022/09/10 00:48:10;;;;;;;;;;;17.10;77.90;;;;;;5129248;27;19924;-71
2022/09/10 00:50:38;;;;;;;;;;;17.10;77.90;;;;;;5128684;27;19923;-71
2022/09/10 00:53:06;;;;;;;;;;;17.10;77.90;;;;;;5126826;27;19931;-70
2022/09/10 00:55:33;;;;;;;;;;;17.10;77.80;;;;;;5126418;27;19945;-72
2022/09/10 00:58:02;;;;;;;;;;;17.10;77.90;;;;;;5125304;27;20352;-71
2022/09/10 01:00:30;;;;;;;;;;;17.10;78.00;;;;;;5124852;27;19951;-71
2022/09/10 01:02:57;;;;;;;;;;;17.10;78.10;;;;;;5136213;27;19919;-70
2022/09/10 01:05:25;;;;;;;;;;;17.10;78.10;;;;;;5128371;27;19955;-71
2022/09/10 01:07:52;;;;;;;;;;;17.10;78.10;;;;;;5131095;27;20351;-71
2022/09/10 01:10:22;;;;;;;;;;;17.10;78.10;;;;;;5132401;27;20042;-70
2022/09/10 01:13:01;;;;;;;;;;;17.10;78.10;;;;;;5134770;27;19926;-71
2022/09/10 01:15:30;;;;;;;;;;;17.10;78.10;;;;;;5129555;27;20395;-71
2022/09/10 01:18:03;;;;;;;;;;;17.10;78.20;;;;;;5123716;27;19920;-71
2022/09/10 01:20:43;;;;;;;;;;;17.10;78.20;;;;;;5128990;27;19962;-71
2022/09/10 01:23:28;;;;;;;;;;;17.10;78.30;;;;;;5130319;27;19929;-71
2022/09/10 01:26:02;;;;;;;;;;;17.10;78.30;;;;;;5128456;27;20597;-71
2022/09/10 01:28:34;;;;;;;;;;;17.10;78.50;;;;;;5133884;27;19927;-71
2022/09/10 01:31:05;;;;;;;;;;;17.10;78.40;;;;;;5134431;27;20015;-72
2022/09/10 01:33:34;;;;;;;;;;;17.10;78.40;;;;;;5131630;27;19951;-71
2022/09/10 01:36:02;;;;;;;;;;;17.10;78.50;;;;;;5132707;27;19919;-71
2022/09/10 01:38:32;;;;;;;;;;;17.10;78.50;;;;;;5130697;27;19926;-71
2022/09/10 01:41:00;;;;;;;;;;;17.10;78.60;;;;;;5130666;27;20300;-71
2022/09/10 01:43:32;;;;;;;;;;;17.10;78.60;;;;;;5132166;27;19946;-71
2022/09/10 01:46:05;;;;;;;;;;;17.10;78.50;;;;;;5130771;27;19920;-71
2022/09/10 01:48:44;;;;;;;;;;;17.10;78.50;;;;;;5128107;27;20039;-71
2022/09/10 01:51:18;;;;;;;;;;;17.10;78.50;;;;;;5135831;27;19923;-71
2022/09/10 01:53:52;;;;;;;;;;;17.10;78.60;;;;;;5130598;27;19919;-72
2022/09/10 01:56:25;;;;;;;;;;;17.10;78.60;;;;;;5131531;27;19958;-71
2022/09/10 01:58:56;;;;;;;;;;;17.10;78.50;;;;;;5129440;27;19923;-71
2022/09/10 02:01:35;;;;;;;;;;;17.10;78.70;;;;;;5125154;27;19964;-70
2022/09/10 02:04:04;;;;;;;;;;;17.10;78.70;;;;;;5127532;27;19926;-71
2022/09/10 02:06:33;;;;;;;;;;;17.10;78.70;;;;;;5127974;27;20274;-71
2022/09/10 02:09:01;;;;;;;;;;;17.10;78.80;;;;;;5132885;27;20385;-71
2022/09/10 02:11:28;;;;;;;;;;;17.10;78.60;;;;;;5130147;27;19920;-71
2022/09/10 02:14:00;;;;;;;;;;;17.10;78.70;;;;;;5139878;27;19951;-71
2022/09/10 02:16:52;;;;;;;;;;;17.10;78.80;;;;;;5134808;27;20373;-72
2022/09/10 02:19:19;;;;;;;;;;;17.10;78.60;;;;;;5129460;27;19919;-71
2022/09/10 02:21:50;;;;;;;;;;;17.10;78.70;;;;;;5129143;27;20007;-71
2022/09/10 02:24:17;;;;;;;;;;;17.10;78.70;;;;;;5126551;27;20262;-71
2022/09/10 02:26:44;;;;;;;;;;;17.10;78.80;;;;;;5134363;27;19927;-71
2022/09/10 02:29:14;;;;;;;;;;;17.10;78.70;;;;;;5128151;27;19927;-71
2022/09/10 02:31:40;;;;;;;;;;;17.10;78.70;;;;;;5132770;27;19923;-72
2022/09/10 02:34:07;;;;;;;;;;;17.20;78.70;;;;;;5126102;27;19935;-71
2022/09/10 02:36:34;;;;;;;;;;;17.10;78.70;;;;;;5131796;27;19919;-71
2022/09/10 02:39:03;;;;;;;;;;;17.10;78.60;;;;;;5128137;27;19939;-71
2022/09/10 02:41:32;;;;;;;;;;;17.20;78.60;;;;;;5127008;27;19923;-71
2022/09/10 02:44:00;;;;;;;;;;;17.20;78.70;;;;;;5129688;27;19924;-71
2022/09/10 02:46:29;;;;;;;;;;;17.10;78.70;;;;;;5119507;27;19927;-71
2022/09/10 02:48:56;;;;;;;;;;;17.20;78.70;;;;;;5129693;27;19974;-71
2022/09/10 02:51:24;;;;;;;;;;;17.10;78.80;;;;;;5126770;27;19948;-71
2022/09/10 02:53:51;;;;;;;;;;;17.10;78.80;;;;;;5131209;27;19933;-71
2022/09/10 02:56:18;;;;;;;;;;;17.20;78.80;;;;;;5122566;27;19927;-71
2022/09/10 02:58:45;;;;;;;;;;;17.20;78.70;;;;;;5123930;27;20023;-71
2022/09/10 03:01:14;;;;;;;;;;;17.20;78.60;;;;;;5128429;27;20014;-70
2022/09/10 03:03:43;;;;;;;;;;;17.20;78.70;;;;;;5127180;27;19973;-71
2022/09/10 03:06:10;;;;;;;;;;;17.20;78.70;;;;;;5130641;27;20018;-71
2022/09/10 03:08:36;;;;;;;;;;;17.20;78.60;;;;;;5126598;27;20169;-70
2022/09/10 03:11:03;;;;;;;;;;;17.20;78.70;;;;;;5125941;27;19927;-70
2022/09/10 03:13:33;;;;;;;;;;;17.20;78.80;;;;;;5127564;27;19927;-71
2022/09/10 03:16:01;;;;;;;;;;;17.20;78.80;;;;;;5131816;27;19919;-70
2022/09/10 03:18:28;;;;;;;;;;;17.20;78.90;;;;;;5128915;27;19970;-71
2022/09/10 03:21:07;;;;;;;;;;;17.10;78.90;;;;;;5125506;27;19933;-70
2022/09/10 03:23:33;;;;;;;;;;;17.20;78.90;;;;;;5129382;27;19933;-69
2022/09/10 03:26:03;;;;;;;;;;;17.20;78.90;;;;;;5128176;27;20296;-70
2022/09/10 03:28:31;;;;;;;;;;;17.20;78.90;;;;;;5132332;27;20424;-70
2022/09/10 03:31:00;;;;;;;;;;;17.10;78.90;;;;;;5130302;27;19919;-70
2022/09/10 03:33:29;;;;;;;;;;;17.20;79.00;;;;;;5131669;27;20396;-71
2022/09/10 03:35:58;;;;;;;;;;;17.10;79.10;;;;;;5127890;27;20393;-71
2022/09/10 03:38:28;;;;;;;;;;;17.10;79.00;;;;;;5119805;27;20365;-71
2022/09/10 03:40:55;;;;;;;;;;;17.20;79.10;;;;;;5120078;27;19999;-71
2022/09/10 03:43:22;;;;;;;;;;;17.20;79.10;;;;;;5128072;27;20391;-71
2022/09/10 03:45:50;;;;;;;;;;;17.20;79.00;;;;;;5125831;27;19972;-71
2022/09/10 03:48:17;;;;;;;;;;;17.20;79.10;;;;;;5124529;27;20437;-71
2022/09/10 03:50:44;;;;;;;;;;;17.20;79.10;;;;;;5124103;27;20384;-71
2022/09/10 03:53:13;;;;;;;;;;;17.20;79.00;;;;;;5120056;27;20494;-71
2022/09/10 03:55:42;;;;;;;;;;;17.20;79.10;;;;;;5127071;27;20436;-71
2022/09/10 03:58:10;;;;;;;;;;;17.20;79.20;;;;;;5124706;27;19920;-70
2022/09/10 04:00:37;;;;;;;;;;;17.10;79.20;;;;;;5127909;27;20305;-71
2022/09/10 04:03:05;;;;;;;;;;;17.20;79.20;;;;;;5119834;27;19954;-71
2022/09/10 04:05:32;;;;;;;;;;;17.20;79.30;;;;;;5122289;27;20676;-71
2022/09/10 04:08:01;;;;;;;;;;;17.20;79.30;;;;;;5119164;27;19950;-71
2022/09/10 04:10:30;;;;;;;;;;;17.20;79.30;;;;;;5122329;27;20386;-69
2022/09/10 04:12:57;;;;;;;;;;;17.20;79.30;;;;;;5125803;27;19927;-70
2022/09/10 04:15:25;;;;;;;;;;;17.20;79.30;;;;;;5126912;27;19919;-70
2022/09/10 04:17:53;;;;;;;;;;;17.20;79.30;;;;;;5126779;27;19927;-71
2022/09/10 04:20:24;;;;;;;;;;;17.20;79.30;;;;;;5125388;27;19994;-71
2022/09/10 04:22:55;;;;;;;;;;;17.10;79.30;;;;;;5123806;27;19919;-71
2022/09/10 04:25:22;;;;;;;;;;;17.10;79.30;;;;;;5123358;27;20361;-71
2022/09/10 04:27:51;;;;;;;;;;;17.20;78.90;;;;;;5129662;27;20834;-71
2022/09/10 04:30:18;;;;;;;;;;;17.20;78.90;;;;;;5122784;27;19927;-71
2022/09/10 04:32:45;;;;;;;;;;;17.20;78.80;;;;;;5123713;27;19920;-71
2022/09/10 04:35:14;;;;;;;;;;;17.20;78.60;;;;;;5126647;27;19931;-71
2022/09/10 04:37:41;;;;;;;;;;;17.20;78.70;;;;;;5129263;27;20015;-71
2022/09/10 04:40:10;;;;;;;;;;;17.10;78.80;;;;;;5129747;27;19926;-70
2022/09/10 04:42:37;;;;;;;;;;;17.10;78.80;;;;;;5120238;27;20206;-71
2022/09/10 04:45:07;;;;;;;;;;;17.20;78.80;;;;;;5121742;27;20395;-71
2022/09/10 04:47:34;;;;;;;;;;;17.10;78.60;;;;;;5118828;27;20417;-71
2022/09/10 04:50:02;;;;;;;;;;;17.10;78.50;;;;;;5118577;27;19931;-71
2022/09/10 04:52:29;;;;;;;;;;;17.20;78.60;;;;;;5128857;27;19919;-71
2022/09/10 04:54:56;;;;;;;;;;;17.10;78.70;;;;;;5128849;27;19975;-71
2022/09/10 04:57:24;;;;;;;;;;;17.10;78.70;;;;;;5129249;27;19927;-71
2022/09/10 04:59:52;;;;;;;;;;;17.10;78.60;;;;;;5124490;27;19967;-71
2022/09/10 05:02:21;;;;;;;;;;;17.20;78.40;;;;;;5117572;27;20424;-72
2022/09/10 05:04:48;;;;;;;;;;;17.10;78.50;;;;;;5125641;27;19927;-70
2022/09/10 05:07:15;;;;;;;;;;;17.10;78.50;;;;;;5122526;27;20002;-70
2022/09/10 05:09:42;;;;;;;;;;;17.10;78.70;;;;;;5123860;27;19930;-70
2022/09/10 05:12:11;;;;;;;;;;;17.10;78.40;;;;;;5126298;27;20006;-70
2022/09/10 05:14:38;;;;;;;;;;;17.10;78.60;;;;;;5124764;27;19919;-71
2022/09/10 05:17:05;;;;;;;;;;;17.10;78.60;;;;;;5124944;27;20280;-71
2022/09/10 05:19:34;;;;;;;;;;;17.10;78.70;;;;;;5119125;27;20407;-71
2022/09/10 05:22:05;;;;;;;;;;;17.10;78.70;;;;;;5118216;27;19920;-71
2022/09/10 05:24:34;;;;;;;;;;;17.10;78.60;;;;;;5129909;27;20020;-70
2022/09/10 05:27:03;;;;;;;;;;;17.10;78.40;;;;;;5124936;27;20513;-71
2022/09/10 05:29:30;;;;;;;;;;;17.10;78.20;;;;;;5132072;27;19920;-71
2022/09/10 05:31:58;;;;;;;;;;;17.20;78.20;;;;;;5122423;27;20016;-71
2022/09/10 05:34:25;;;;;;;;;;;17.20;78.20;;;;;;5129143;27;19919;-70
2022/09/10 05:36:55;;;;;;;;;;;17.10;78.40;;;;;;5125216;27;19933;-71
2022/09/10 05:39:22;;;;;;;;;;;17.10;78.40;;;;;;5125478;27;20022;-71
2022/09/10 05:41:49;;;;;;;;;;;17.20;78.30;;;;;;5123837;27;19919;-71
2022/09/10 05:44:17;;;;;;;;;;;17.10;78.50;;;;;;5124993;27;19926;-70
2022/09/10 05:46:45;;;;;;;;;;;17.20;78.20;;;;;;5125673;27;19950;-70
2022/09/10 05:49:15;;;;;;;;;;;17.20;78.10;;;;;;5128067;27;19970;-71
2022/09/10 05:51:42;;;;;;;;;;;17.20;78.30;;;;;;5127286;27;19962;-69
2022/09/10 05:54:11;;;;;;;;;;;17.20;78.20;;;;;;5123398;27;19930;-70
2022/09/10 05:56:40;;;;;;;;;;;17.20;78.10;;;;;;5128642;27;19941;-71
2022/09/10 05:59:07;;;;;;;;;;;17.20;78.30;;;;;;5131355;27;19919;-71
2022/09/10 06:01:33;;;;;;;;;;;17.20;78.20;;;;;;5125825;27;19980;-71
2022/09/10 06:04:03;;;;;;;;;;;17.20;78.10;;;;;;5130953;27;19927;-69
2022/09/10 06:06:30;;;;;;;;;;;17.20;78.20;;;;;;5129188;27;19931;-71
2022/09/10 06:09:05;;;;;;;;;;;17.30;78.10;;;;;;5126055;27;19954;-70
2022/09/10 06:11:54;;;;;;;;;;;17.20;77.90;;;;;;5124932;27;19951;-70
2022/09/10 06:14:21;;;;;;;;;;;17.30;78.10;;;;;;5125896;27;19947;-70
2022/09/10 06:16:50;;;;;;;;;;;17.30;78.30;;;;;;5112497;27;19928;-70
2022/09/10 06:19:18;;;;;;;;;;;17.20;78.80;;;;;;5126624;27;19941;-71
2022/09/10 06:21:46;;;;;;;;;;;17.20;79.10;;;;;;5129911;27;19926;-71
2022/09/10 06:24:13;;;;;;;;;;;17.10;79.30;;;;;;5122543;27;19929;-71
2022/09/10 06:26:42;;;;;;;;;;;17.10;79.80;;;;;;5125386;27;19923;-71
2022/09/10 06:29:14;;;;;;;;;;;17.10;80.10;;;;;;5128013;27;20453;-71
2022/09/10 06:31:41;;;;;;;;;;;17.10;80.30;;;;;;5124843;27;19927;-71
2022/09/10 06:34:09;;;;;;;;;;;17.00;80.60;;;;;;5129063;27;20269;-71
2022/09/10 06:36:36;;;;;;;;;;;17.10;80.90;;;;;;5131090;27;19924;-71
2022/09/10 06:39:03;;;;;;;;;;;17.00;81.00;;;;;;5124787;27;19930;-71
2022/09/10 06:41:35;;;;;;;;;;;17.00;81.30;;;;;;5126079;27;19969;-71
2022/09/10 06:44:09;;;;;;;;;;;17.00;81.30;;;;;;5122155;27;19919;-71
2022/09/10 06:46:42;;;;;;;;;;;17.00;81.10;;;;;;5127506;27;19949;-71
2022/09/10 06:49:10;;;;;;;;;;;17.00;81.40;;;;;;5124235;27;20828;-71
2022/09/10 06:51:38;;;;;;;;;;;17.00;81.70;;;;;;5128440;27;19919;-71
2022/09/10 06:54:07;;;;;;;;;;;17.00;81.70;;;;;;5125920;27;19968;-70
2022/09/10 06:56:34;;;;;;;;;;;17.00;81.80;;;;;;5126441;27;20339;-71
2022/09/10 06:59:03;;;;;;;;;;;17.00;81.80;;;;;;5119969;27;20285;-71
2022/09/10 07:01:36;;;;;;;;;;;17.00;81.80;;;;;;5125307;27;20245;-71
2022/09/10 07:04:05;;;;;;;;;;;17.00;81.80;;;;;;5129943;27;20290;-71
2022/09/10 07:06:34;;;;;;;;;;;17.00;81.80;;;;;;5119871;27;19920;-71
2022/09/10 07:09:22;;;;;;;;;;;17.00;81.80;;;;;;5127252;27;19942;-71
2022/09/10 07:11:53;;;;;;;;;;;17.00;81.80;;;;;;5129130;27;20295;-69
2022/09/10 07:14:20;;;;;;;;;;;17.00;81.80;;;;;;5132407;27;19926;-71
2022/09/10 07:16:50;;;;;;;;;;;17.10;81.80;;;;;;5120735;27;19925;-71
2022/09/10 07:19:19;;;;;;;;;;;17.10;81.70;;;;;;5127915;27;19929;-71
2022/09/10 07:21:47;;;;;;;;;;;17.10;81.80;;;;;;5124603;27;20381;-71
2022/09/10 07:24:16;;;;;;;;;;;17.00;82.00;;;;;;5126396;27;19919;-71
2022/09/10 07:26:59;;;;;;;;;;;17.00;82.30;;;;;;5126841;27;20336;-71
2022/09/10 07:29:30;;;;;;;;;;;17.00;82.20;;;;;;5127854;27;20422;-71
2022/09/10 07:31:57;;;;;;;;;;;17.10;82.30;;;;;;5127208;27;20425;-71
2022/09/10 07:34:26;;;;;;;;;;;17.00;82.30;;;;;;5122515;27;19945;-70
2022/09/10 07:36:55;;;;;;;;;;;17.00;82.60;;;;;;5125642;27;20014;-71
2022/09/10 07:39:23;;;;;;;;;;;17.00;82.90;;;;;;5128573;27;19963;-71
2022/09/10 07:41:51;;;;;;;;;;;17.00;83.00;;;;;;5130853;27;19919;-71
2022/09/10 07:44:21;;;;;;;;;;;17.00;82.70;;;;;;5123661;27;19933;-71
2022/09/10 07:46:48;;;;;;;;;;;17.10;82.80;;;;;;5129979;27;19919;-70
2022/09/10 07:49:16;;;;;;;;;;;17.10;82.80;;;;;;5121677;27;19923;-71
2022/09/10 07:51:53;;;;;;;;;;;17.10;83.10;;;;;;5128142;27;19927;-70
2022/09/10 07:54:20;;;;;;;;;;;17.10;83.10;;;;;;5122746;27;20021;-71
2022/09/10 07:56:52;;;;;;;;;;;17.10;83.20;;;;;;5126785;27;19919;-70
2022/09/10 07:59:19;;;;;;;;;;;17.10;83.10;;;;;;5125282;27;19930;-71
2022/09/10 08:01:52;;;;;;;;;;;17.10;83.40;;;;;;5121563;27;19919;-71
2022/09/10 08:04:20;;;;;;;;;;;17.10;83.40;;;;;;5125500;27;20294;-70
2022/09/10 08:06:50;;;;;;;;;;;17.10;83.10;;;;;;5116530;27;19990;-71
2022/09/10 08:09:18;;;;;;;;;;;17.10;82.80;;;;;;5115937;27;20046;-71
2022/09/10 08:11:51;;;;;;;;;;;17.10;83.40;;;;;;5128199;27;19923;-71
2022/09/10 08:14:21;;;;;;;;;;;17.10;83.10;;;;;;5123440;27;19972;-71
2022/09/10 08:16:51;;;;;;;;;;;17.20;83.00;;;;;;5119017;27;20285;-71
2022/09/10 08:19:19;;;;;;;;;;;17.20;82.80;;;;;;5123642;27;19927;-71
2022/09/10 08:21:50;;;;;;;;;;;17.30;82.60;;;;;;5129786;27;19927;-70
2022/09/10 08:24:23;;;;;;;;;;;17.30;82.40;;;;;;5130383;27;19923;-69
2022/09/10 08:26:51;;;;;;;;;;;17.40;82.50;;;;;;5126058;27;20441;-71
2022/09/10 08:29:18;;;;;;;;;;;17.30;82.60;;;;;;5122936;27;19920;-70
2022/09/10 08:31:46;;;;;;;;;;;17.30;82.70;;;;;;5125526;27;19919;-71
2022/09/10 08:34:20;;;;;;;;;;;17.30;82.80;;;;;;5127868;27;20258;-70
2022/09/10 08:36:58;;;;;;;;;;;17.30;82.80;;;;;;5122182;27;20288;-71
2022/09/10 08:39:25;;;;;;;;;;;17.30;82.80;;;;;;5123593;27;19931;-71
2022/09/10 08:41:56;;;;;;;;;;;17.30;82.60;;;;;;5126606;27;19959;-70
2022/09/10 08:44:30;;;;;;;;;;;17.30;82.90;;;;;;5121848;27;20008;-70
2022/09/10 08:47:03;;;;;;;;;;;17.30;83.10;;;;;;5122852;27;20542;-70
2022/09/10 08:49:33;;;;;;;;;;;17.40;83.00;;;;;;5127397;27;20014;-70
2022/09/10 08:52:04;;;;;;;;;;;17.40;82.90;;;;;;5127554;27;19992;-70
2022/09/10 08:54:36;;;;;;;;;;;17.40;82.50;;;;;;5122270;27;19931;-71
2022/09/10 08:57:05;;;;;;;;;;;17.40;82.40;;;;;;5123517;28;19982;-70
2022/09/10 08:59:33;;;;;;;;;;;17.50;82.30;;;;;;5128752;27;19919;-69
2022/09/10 09:02:10;;;;;;;;;;;17.60;82.50;;;;;;5121389;28;19919;-70
2022/09/10 09:04:40;;;;;;;;;;;17.60;82.50;;;;;;5123486;28;19926;-70
2022/09/10 09:07:13;;;;;;;;;;;17.60;82.50;;;;;;5126257;28;19926;-71
2022/09/10 09:09:41;;;;;;;;;;;17.70;82.60;;;;;;5126562;27;20345;-70
2022/09/10 09:12:14;;;;;;;;;;;17.80;82.30;;;;;;5122713;28;19919;-70
2022/09/10 09:14:49;;;;;;;;;;;17.80;82.20;;;;;;5117298;28;20464;-70
2022/09/10 09:17:30;;;;;;;;;;;17.90;82.40;;;;;;5115748;27;19928;-69
2022/09/10 09:20:04;;;;;;;;;;;18.00;82.40;;;;;;5126248;27;20310;-70
2022/09/10 09:22:41;;;;;;;;;;;18.00;81.90;;;;;;5123746;27;20349;-69
2022/09/10 09:25:20;;;;;;;;;;;18.10;81.90;;;;;;5129891;27;19919;-70
2022/09/10 09:27:48;;;;;;;;;;;18.10;81.80;;;;;;5123057;27;20017;-71
2022/09/10 09:30:16;;;;;;;;;;;18.00;81.90;;;;;;5123991;27;19956;-70
2022/09/10 09:32:45;;;;;;;;;;;18.00;81.60;;;;;;5126669;27;20009;-69
2022/09/10 09:35:18;;;;;;;;;;;18.00;81.80;;;;;;5127555;27;19928;-70
2022/09/10 09:37:47;;;;;;;;;;;18.10;81.50;;;;;;5131169;27;19935;-70
2022/09/10 09:40:21;;;;;;;;;;;18.20;81.50;;;;;;5129394;27;20058;-70
2022/09/10 09:42:51;;;;;;;;;;;18.20;81.70;;;;;;5127242;27;20552;-69
2022/09/10 09:45:23;;;;;;;;;;;18.20;81.50;;;;;;5125686;27;20010;-70
2022/09/10 09:47:53;;;;;;;;;;;18.20;81.30;;;;;;5126735;27;19927;-69
2022/09/10 09:50:20;;;;;;;;;;;18.10;81.40;;;;;;5130938;27;19920;-68
2022/09/10 09:52:51;;;;;;;;;;;18.00;81.70;;;;;;5121313;27;19926;-71
2022/09/10 09:55:22;;;;;;;;;;;18.00;82.00;;;;;;5126625;27;19926;-70
2022/09/10 09:57:52;;;;;;;;;;;17.90;82.20;;;;;;5129624;27;19919;-69
2022/09/10 10:00:33;;;;;;;;;;;17.80;82.20;;;;;;5127950;27;19919;-69
2022/09/10 10:03:06;;;;;;;;;;;17.80;82.60;;;;;;5127108;27;19927;-70
2022/09/10 10:05:34;;;;;;;;;;;17.80;82.90;;;;;;5131368;27;20586;-70
2022/09/10 10:08:04;;;;;;;;;;;17.80;82.90;;;;;;5126592;27;20296;-71
2022/09/10 10:10:31;;;;;;;;;;;17.80;82.70;;;;;;5129627;27;20031;-69
2022/09/10 10:12:57;;;;;;;;;;;17.90;82.60;;;;;;5130033;27;20010;-70
2022/09/10 10:15:35;;;;;;;;;;;17.80;82.60;;;;;;5125174;27;20381;-69
2022/09/10 10:18:23;;;;;;;;;;;17.80;82.60;;;;;;5127017;27;19919;-69
2022/09/10 10:21:06;;;;;;;;;;;17.80;82.50;;;;;;5123653;27;19964;-70
2022/09/10 10:23:35;;;;;;;;;;;17.80;82.70;;;;;;5127054;27;19938;-70
2022/09/10 10:26:15;;;;;;;;;;;17.70;82.60;;;;;;5128415;27;19931;-71
2022/09/10 10:28:45;;;;;;;;;;;17.70;82.80;;;;;;5122933;27;20014;-71
2022/09/10 10:31:12;;;;;;;;;;;17.70;83.00;;;;;;5126276;27;20422;-70
2022/09/10 10:33:45;;;;;;;;;;;17.70;82.90;;;;;;5128759;27;19927;-70
2022/09/10 10:36:15;;;;;;;;;;;17.80;83.10;;;;;;5127608;27;19931;-70
2022/09/10 10:38:45;;;;;;;;;;;17.80;83.10;;;;;;5124269;27;20000;-70
2022/09/10 10:41:28;;;;;;;;;;;17.90;82.70;;;;;;5128796;27;19927;-70
2022/09/10 10:44:01;;;;;;;;;;;18.00;82.80;;;;;;5131561;27;19923;-70
2022/09/10 10:46:34;;;;;;;;;;;18.10;82.30;;;;;;5125129;27;19935;-72
2022/09/10 10:49:07;;;;;;;;;;;18.10;82.20;;;;;;5127274;27;19919;-69
2022/09/10 10:51:42;;;;;;;;;;;18.10;81.60;;;;;;5120850;27;20022;-70
2022/09/10 10:54:19;;;;;;;;;;;18.10;81.50;;;;;;5127029;27;19927;-70
2022/09/10 10:56:50;;;;;;;;;;;18.10;81.20;;;;;;5124302;27;19925;-71
2022/09/10 10:59:25;;;;;;;;;;;18.20;81.40;;;;;;5125385;27;20180;-70
2022/09/10 11:01:55;;;;;;;;;;;18.20;81.40;;;;;;5124142;27;19923;-69
2022/09/10 11:04:26;;;;;;;;;;;18.20;81.50;;;;;;5121851;27;19953;-70
2022/09/10 11:06:56;;;;;;;;;;;18.30;81.50;;;;;;5133136;27;20377;-70
2022/09/10 11:09:26;;;;;;;;;;;18.30;81.70;;;;;;5124343;27;19926;-69
2022/09/10 11:11:55;;;;;;;;;;;18.30;81.80;;;;;;5126941;27;19919;-69
2022/09/10 11:14:27;;;;;;;;;;;18.20;82.00;;;;;;5121819;27;19926;-70
2022/09/10 11:16:57;;;;;;;;;;;18.20;82.40;;;;;;5122781;27;20043;-69
2022/09/10 11:19:26;;;;;;;;;;;18.20;82.40;;;;;;5131901;27;20015;-70
2022/09/10 11:21:57;;;;;;;;;;;18.20;82.30;;;;;;5119610;27;19930;-70
2022/09/10 11:24:29;;;;;;;;;;;18.10;82.50;;;;;;5125100;27;19955;-71
2022/09/10 11:27:01;;;;;;;;;;;18.10;82.60;;;;;;5128142;27;19920;-69
2022/09/10 11:29:33;;;;;;;;;;;18.10;82.90;;;;;;5125801;27;19919;-69
2022/09/10 11:32:05;;;;;;;;;;;18.00;83.30;;;;;;5124306;27;20242;-70
2022/09/10 11:34:34;;;;;;;;;;;18.00;83.40;;;;;;5125650;27;19919;-70
2022/09/10 11:37:05;;;;;;;;;;;18.00;83.60;;;;;;5129751;27;20031;-70
2022/09/10 11:39:34;;;;;;;;;;;18.00;83.50;;;;;;5125404;27;20000;-69
2022/09/10 11:42:04;;;;;;;;;;;18.00;83.40;;;;;;5118114;27;19939;-69
2022/09/10 11:44:37;;;;;;;;;;;17.90;83.20;;;;;;5118539;27;19928;-70
2022/09/10 11:47:06;;;;;;;;;;;18.00;83.30;;;;;;5126526;27;19923;-69
2022/09/10 11:49:39;;;;;;;;;;;17.90;83.50;;;;;;5127236;27;19934;-69
2022/09/10 11:52:07;;;;;;;;;;;18.10;83.40;;;;;;5128288;27;19919;-69
2022/09/10 11:54:37;;;;;;;;;;;18.00;83.40;;;;;;5129776;27;20357;-69
2022/09/10 11:57:06;;;;;;;;;;;18.00;82.90;;;;;;5126183;27;19919;-70
2022/09/10 11:59:41;;;;;;;;;;;18.00;82.70;;;;;;5128163;27;19919;-71
2022/09/10 12:02:32;;;;;;;;;;;18.00;82.80;;;;;;5126183;27;20017;-70
2022/09/10 12:05:03;;;;;;;;;;;18.10;82.30;;;;;;5118514;27;19923;-70
2022/09/10 12:07:37;;;;;;;;;;;18.40;82.00;;;;;;5125798;27;19919;-69
2022/09/10 12:10:12;;;;;;;;;;;18.60;82.10;;;;;;5124112;27;19958;-70
2022/09/10 12:12:41;;;;;;;;;;;18.70;82.00;;;;;;5123775;27;20549;-69
2022/09/10 12:15:09;;;;;;;;;;;18.80;81.90;;;;;;5125413;27;19972;-70
2022/09/10 12:17:38;;;;;;;;;;;19.00;82.10;;;;;;5122629;27;19927;-69
2022/09/10 12:20:06;;;;;;;;;;;19.00;82.10;;;;;;5128794;27;19919;-70
2022/09/10 12:22:36;;;;;;;;;;;18.90;82.10;;;;;;5121086;27;19927;-70
2022/09/10 12:25:05;;;;;;;;;;;18.80;81.60;;;;;;5123381;27;19929;-71
2022/09/10 12:27:48;;;;;;;;;;;18.90;81.20;;;;;;5123112;27;20444;-70
2022/09/10 12:30:36;;;;;;;;;;;19.00;81.20;;;;;;5122134;27;19971;-69
2022/09/10 12:33:25;;;;;;;;;;;19.10;82.00;;;;;;5087967;27;19931;-70
2022/09/10 12:35:52;;;;;;;;;;;19.20;82.10;;;;;;5127808;27;20047;-69
2022/09/10 12:38:38;;;;;;;;;;;19.20;81.70;;;;;;5126253;27;19927;-69
2022/09/10 12:41:09;;;;;;;;;;;19.30;81.40;;;;;;5125008;27;19919;-70
2022/09/10 12:43:57;;;;;;;;;;;19.30;81.30;;;;;;5121164;27;19930;-70
2022/09/10 12:46:24;;;;;;;;;;;19.30;80.90;;;;;;5120258;27;20368;-69
2022/09/10 12:49:04;;;;;;;;;;;19.20;80.70;;;;;;5128718;27;19923;-70
2022/09/10 12:51:33;;;;;;;;;;;19.10;80.90;;;;;;5123525;27;19935;-69
2022/09/10 12:54:24;;;;;;;;;;;19.10;80.70;;;;;;5128873;27;19919;-70
2022/09/10 12:57:00;;;;;;;;;;;19.20;80.80;;;;;;5121343;27;19926;-71
2022/09/10 12:59:39;;;;;;;;;;;19.10;80.70;;;;;;5122411;27;19924;-70
2022/09/10 13:02:18;;;;;;;;;;;19.10;80.30;;;;;;5120219;27;19924;-71
2022/09/10 13:04:53;;;;;;;;;;;19.40;79.80;;;;;;5118791;28;19944;-70
2022/09/10 13:07:20;;;;;;;;;;;19.50;79.70;;;;;;5118093;27;19950;-70
2022/09/10 13:09:56;;;;;;;;;;;19.60;78.70;;;;;;5128502;28;20278;-69
2022/09/10 13:12:24;;;;;;;;;;;19.70;78.10;;;;;;5123864;27;19975;-70
2022/09/10 13:14:55;;;;;;;;;;;19.80;77.70;;;;;;5122932;27;19919;-70
2022/09/10 13:17:38;;;;;;;;;;;19.90;77.30;;;;;;5124802;27;19919;-70
2022/09/10 13:20:13;;;;;;;;;;;20.10;77.10;;;;;;5125293;27;19920;-73
2022/09/10 13:23:02;;;;;;;;;;;20.00;77.00;;;;;;5130124;27;20022;-71
2022/09/10 13:25:38;;;;;;;;;;;20.00;77.10;;;;;;5123966;27;20357;-71
2022/09/10 13:28:24;;;;;;;;;;;19.90;77.70;;;;;;5123401;28;19973;-71
2022/09/10 13:31:00;;;;;;;;;;;19.90;77.40;;;;;;5124534;27;19919;-72
2022/09/10 13:33:28;;;;;;;;;;;19.80;77.40;;;;;;5119779;27;20022;-70
2022/09/10 13:36:05;;;;;;;;;;;19.80;77.10;;;;;;5120066;27;19920;-70
2022/09/10 13:38:51;;;;;;;;;;;19.70;77.00;;;;;;5117800;27;20414;-71
2022/09/10 13:41:26;;;;;;;;;;;19.70;77.00;;;;;;5118595;27;19930;-71
2022/09/10 13:44:03;;;;;;;;;;;19.70;77.20;;;;;;5123899;27;20006;-70
2022/09/10 13:46:34;;;;;;;;;;;19.70;77.50;;;;;;5127605;27;19964;-70
2022/09/10 13:49:06;;;;;;;;;;;19.70;77.40;;;;;;5115597;27;20384;-71
2022/09/10 13:51:36;;;;;;;;;;;19.70;77.20;;;;;;5120320;27;20017;-71
2022/09/10 13:54:07;;;;;;;;;;;19.60;77.30;;;;;;5127406;27;19927;-70
2022/09/10 13:56:34;;;;;;;;;;;19.60;77.50;;;;;;5121479;27;19920;-69
2022/09/10 13:59:03;;;;;;;;;;;19.60;77.70;;;;;;5125100;27;19927;-70
2022/09/10 14:01:50;;;;;;;;;;;19.60;77.90;;;;;;5119319;27;20022;-71
2022/09/10 14:04:25;;;;;;;;;;;19.60;78.30;;;;;;5124105;28;19930;-70
2022/09/10 14:06:52;;;;;;;;;;;19.50;78.60;;;;;;5116880;27;20276;-70
2022/09/10 14:09:19;;;;;;;;;;;19.40;79.10;;;;;;5127811;27;19923;-70
2022/09/10 14:11:46;;;;;;;;;;;19.50;79.20;;;;;;5131034;27;19920;-70
2022/09/10 14:14:15;;;;;;;;;;;19.60;79.60;;;;;;5129061;27;19926;-71
2022/09/10 14:16:43;;;;;;;;;;;19.60;79.70;;;;;;5133508;27;20006;-71
2022/09/10 14:19:15;;;;;;;;;;;19.60;79.70;;;;;;5131564;27;19950;-71
2022/09/10 14:21:42;;;;;;;;;;;19.50;80.00;;;;;;5126461;27;19919;-70
2022/09/10 14:24:25;;;;;;;;;;;19.40;80.10;;;;;;5124788;27;19919;-70
2022/09/10 14:27:04;;;;;;;;;;;19.30;80.40;;;;;;5127392;27;19919;-70
2022/09/10 14:29:31;;;;;;;;;;;19.30;80.60;;;;;;5128384;27;19983;-70
2022/09/10 14:32:13;;;;;;;;;;;19.30;80.60;;;;;;5127763;27;19947;-69
2022/09/10 14:34:41;;;;;;;;;;;19.20;80.90;;;;;;5127423;27;20277;-69
2022/09/10 14:37:23;;;;;;;;;;;19.10;81.10;;;;;;5122498;27;19924;-69